Time,TemperatureF,DewpointF,PressureIn,WindDirection,WindDirectionDegrees,WindSpeedMPH,WindSpeedGustMPH,Humidity,HourlyPrecipIn,Conditions,Clouds,dailyrainin,SoftwareType,DateUTC
2013-10-31 00:04:00,39.8,22.0,29.87,WNW,292,0.0,4.0,49,0.00,,,0.00,weatherlink.com 1.10,2013-10-31 06:04:00,
2013-10-31 00:18:00,38.5,22.0,29.87,WNW,289,0.0,3.0,51,0.00,,,0.00,weatherlink.com 1.10,2013-10-31 06:18:00,
2013-10-31 00:33:00,38.2,21.0,29.87,West,273,0.0,5.0,50,0.00,,,0.00,weatherlink.com 1.10,2013-10-31 06:33:00,
2013-10-31 00:48:00,36.6,24.0,29.87,West,273,0.0,0.0,61,0.00,,,0.00,weatherlink.com 1.10,2013-10-31 06:48:00,
2013-10-31 01:03:00,33.9,26.0,29.87,SE,145,0.0,1.0,72,0.00,,,0.00,weatherlink.com 1.10,2013-10-31 07:03:00,
2013-10-31 01:18:00,32.6,26.0,29.87,SE,145,0.0,1.0,76,0.00,,,0.00,weatherlink.com 1.10,2013-10-31 07:18:00,
2013-10-31 01:33:00,31.7,26.0,29.87,SW,234,2.0,2.0,78,0.00,,,0.00,weatherlink.com 1.10,2013-10-31 07:33:00,
2013-10-31 01:48:00,31.2,25.0,29.86,WSW,256,0.0,2.0,78,0.00,,,0.00,weatherlink.com 1.10,2013-10-31 07:48:00,
2013-10-31 02:03:00,30.7,25.0,29.86,WSW,256,0.0,0.0,79,0.00,,,0.00,weatherlink.com 1.10,2013-10-31 08:03:00,
2013-10-31 02:18:00,30.0,25.0,29.86,WSW,256,0.0,0.0,80,0.00,,,0.00,weatherlink.com 1.10,2013-10-31 08:18:00,
2013-10-31 02:33:00,29.6,24.0,29.86,WSW,256,0.0,0.0,80,0.00,,,0.00,weatherlink.com 1.10,2013-10-31 08:33:00,
2013-10-31 03:18:00,28.7,24.0,29.87,WSW,256,0.0,0.0,81,0.00,,,0.00,weatherlink.com 1.10,2013-10-31 09:18:00,
2013-10-31 03:33:00,28.7,23.0,29.86,WSW,256,0.0,0.0,80,0.00,,,0.00,weatherlink.com 1.10,2013-10-31 09:33:00,
2013-10-31 03:48:00,28.4,23.0,29.86,WSW,256,0.0,1.0,81,0.00,,,0.00,weatherlink.com 1.10,2013-10-31 09:48:00,
2013-10-31 04:03:00,33.5,22.0,29.86,NW,323,1.0,14.0,62,0.00,,,0.00,weatherlink.com 1.10,2013-10-31 10:03:00,
2013-10-31 04:18:00,39.6,20.0,29.86,WNW,302,4.0,11.0,46,0.00,,,0.00,weatherlink.com 1.10,2013-10-31 10:18:00,
2013-10-31 04:33:00,40.4,20.0,29.86,North,5,0.0,2.0,45,0.00,,,0.00,weatherlink.com 1.10,2013-10-31 10:33:00,
2013-10-31 04:48:00,39.4,20.0,29.86,ENE,70,0.0,3.0,45,0.00,,,0.00,weatherlink.com 1.10,2013-10-31 10:48:00,
2013-10-31 05:03:00,40.7,19.0,29.85,NW,304,3.0,13.0,41,0.00,,,0.00,weatherlink.com 1.10,2013-10-31 11:03:00,
2013-10-31 05:18:00,41.9,18.0,29.85,SW,223,4.0,11.0,39,0.00,,,0.00,weatherlink.com 1.10,2013-10-31 11:18:00,
2013-10-31 05:33:00,41.9,18.0,29.85,NNE,29,0.0,11.0,38,0.00,,,0.00,weatherlink.com 1.10,2013-10-31 11:33:00,
2013-10-31 05:48:00,42.3,17.0,29.84,WNW,297,3.0,15.0,36,0.00,,,0.00,weatherlink.com 1.10,2013-10-31 11:48:00,
2013-10-31 06:03:00,42.3,17.0,29.84,West,267,10.0,15.0,36,0.00,,,0.00,weatherlink.com 1.10,2013-10-31 12:03:00,
2013-10-31 06:18:00,42.3,17.0,29.85,West,277,2.0,6.0,36,0.00,,,0.00,weatherlink.com 1.10,2013-10-31 12:18:00,
2013-10-31 06:33:00,42.3,17.0,29.85,WNW,296,1.0,11.0,36,0.00,,,0.00,weatherlink.com 1.10,2013-10-31 12:33:00,
2013-10-31 06:48:00,41.5,17.0,29.85,NNE,26,2.0,5.0,37,0.00,,,0.00,weatherlink.com 1.10,2013-10-31 12:48:00,
2013-10-31 07:04:00,41.9,17.0,29.85,NW,323,0.0,8.0,36,0.00,,,0.00,weatherlink.com 1.10,2013-10-31 13:04:00,
2013-10-31 07:19:00,41.8,16.0,29.84,WNW,288,1.0,9.0,36,0.00,,,0.00,weatherlink.com 1.10,2013-10-31 13:19:00,
2013-10-31 07:34:00,41.8,16.0,29.84,WNW,300,0.0,6.0,35,0.00,,,0.00,weatherlink.com 1.10,2013-10-31 13:34:00,
2013-10-31 07:49:00,42.7,15.0,29.84,WNW,293,0.0,13.0,33,0.00,,,0.00,weatherlink.com 1.10,2013-10-31 13:49:00,
2013-10-31 08:04:00,43.2,16.0,29.84,NW,319,0.0,8.0,33,0.00,,,0.00,weatherlink.com 1.10,2013-10-31 14:04:00,
2013-10-31 08:19:00,43.4,18.0,29.84,ESE,119,0.0,3.0,36,0.00,,,0.00,weatherlink.com 1.10,2013-10-31 14:19:00,
2013-10-31 08:34:00,43.7,18.0,29.84,SE,136,2.0,4.0,35,0.00,,,0.00,weatherlink.com 1.10,2013-10-31 14:34:00,
2013-10-31 08:49:00,44.8,18.0,29.84,SE,136,6.0,6.0,34,0.00,,,0.00,weatherlink.com 1.10,2013-10-31 14:49:00,
2013-10-31 09:04:00,45.4,17.0,29.84,East,84,0.0,3.0,32,0.00,,,0.00,weatherlink.com 1.10,2013-10-31 15:04:00,
2013-10-31 09:19:00,46.5,20.0,29.84,SE,130,5.0,5.0,35,0.00,,,0.00,weatherlink.com 1.10,2013-10-31 15:19:00,
2013-10-31 09:34:00,46.6,20.0,29.84,East,101,1.0,7.0,35,0.00,,,0.00,weatherlink.com 1.10,2013-10-31 15:34:00,
2013-10-31 09:49:00,47.6,20.0,29.84,ENE,61,1.0,3.0,33,0.00,,,0.00,weatherlink.com 1.10,2013-10-31 15:49:00,
2013-10-31 10:04:00,49.1,19.0,29.83,SSE,154,1.0,6.0,30,0.00,,,0.00,weatherlink.com 1.10,2013-10-31 16:04:00,
2013-10-31 10:19:00,49.2,18.0,29.83,WNW,292,12.0,13.0,29,0.00,,,0.00,weatherlink.com 1.10,2013-10-31 16:19:00,
2013-10-31 10:34:00,49.3,17.0,29.83,West,275,4.0,17.0,28,0.00,,,0.00,weatherlink.com 1.10,2013-10-31 16:34:00,
2013-10-31 10:49:00,49.6,17.0,29.83,WNW,293,5.0,16.0,27,0.00,,,0.00,weatherlink.com 1.10,2013-10-31 16:49:00,
2013-10-31 11:04:00,49.7,17.0,29.83,NW,315,10.0,17.0,27,0.00,,,0.00,weatherlink.com 1.10,2013-10-31 17:04:00,
2013-10-31 11:19:00,50.5,17.0,29.83,West,268,4.0,16.0,26,0.00,,,0.00,weatherlink.com 1.10,2013-10-31 17:19:00,
2013-10-31 11:34:00,50.7,17.0,29.83,West,274,20.0,20.0,26,0.00,,,0.00,weatherlink.com 1.10,2013-10-31 17:34:00,
2013-10-31 11:50:00,50.3,17.0,29.84,WNW,290,13.0,23.0,27,0.00,,,0.00,weatherlink.com 1.10,2013-10-31 17:50:00,
2013-10-31 12:04:00,50.4,17.0,29.83,NW,307,6.0,20.0,26,0.00,,,0.00,weatherlink.com 1.10,2013-10-31 18:04:00,
2013-10-31 12:19:00,50.9,17.0,29.83,NNE,19,4.0,22.0,26,0.00,,,0.00,weatherlink.com 1.10,2013-10-31 18:19:00,
2013-10-31 12:34:00,50.3,17.0,29.82,West,263,7.0,24.0,27,0.00,,,0.00,weatherlink.com 1.10,2013-10-31 18:34:00,
2013-10-31 12:49:00,50.8,17.0,29.81,NNW,334,7.0,23.0,26,0.00,,,0.00,weatherlink.com 1.10,2013-10-31 18:49:00,
2013-10-31 13:04:00,50.4,16.0,29.81,WNW,302,10.0,28.0,25,0.00,,,0.00,weatherlink.com 1.10,2013-10-31 19:04:00,
2013-10-31 13:19:00,51.3,15.0,29.81,NW,319,12.0,22.0,24,0.00,,,0.00,weatherlink.com 1.10,2013-10-31 19:19:00,
2013-10-31 13:34:00,50.6,17.0,29.82,NW,311,9.0,21.0,26,0.00,,,0.00,weatherlink.com 1.10,2013-10-31 19:34:00,
2013-10-31 13:49:00,49.6,18.0,29.82,WNW,288,4.0,23.0,28,0.00,,,0.00,weatherlink.com 1.10,2013-10-31 19:49:00,
2013-10-31 14:04:00,49.4,17.0,29.81,NNW,347,10.0,24.0,28,0.00,,,0.00,weatherlink.com 1.10,2013-10-31 20:04:00,
2013-10-31 14:19:00,49.6,18.0,29.82,West,265,5.0,16.0,29,0.00,,,0.00,weatherlink.com 1.10,2013-10-31 20:19:00,
2013-10-31 14:34:00,49.3,19.0,29.83,WNW,288,1.0,18.0,30,0.00,,,0.00,weatherlink.com 1.10,2013-10-31 20:34:00,
2013-10-31 14:50:00,49.0,18.0,29.84,WNW,296,6.0,14.0,29,0.00,,,0.00,weatherlink.com 1.10,2013-10-31 20:50:00,
2013-10-31 15:04:00,48.7,18.0,29.83,WSW,252,7.0,16.0,30,0.00,,,0.00,weatherlink.com 1.10,2013-10-31 21:04:00,
2013-10-31 15:34:00,50.3,18.0,29.83,WSW,249,6.0,18.0,28,0.00,,,0.00,weatherlink.com 1.10,2013-10-31 21:34:00,
2013-10-31 15:49:00,50.8,19.0,29.82,NW,320,12.0,18.0,28,0.00,,,0.00,weatherlink.com 1.10,2013-10-31 21:49:00,
2013-10-31 16:04:00,51.0,19.0,29.82,NW,313,4.0,24.0,28,0.00,,,0.00,weatherlink.com 1.10,2013-10-31 22:04:00,
2013-10-31 16:19:00,50.5,19.0,29.82,NW,318,5.0,23.0,29,0.00,,,0.00,weatherlink.com 1.10,2013-10-31 22:19:00,
2013-10-31 16:34:00,50.3,20.0,29.82,NW,318,6.0,19.0,30,0.00,,,0.00,weatherlink.com 1.10,2013-10-31 22:34:00,
2013-10-31 16:49:00,50.2,20.0,29.83,NW,311,5.0,18.0,30,0.00,,,0.00,weatherlink.com 1.10,2013-10-31 22:49:00,
2013-10-31 17:04:00,50.1,20.0,29.83,WSW,257,2.0,19.0,31,0.00,,,0.00,weatherlink.com 1.10,2013-10-31 23:04:00,
2013-10-31 17:19:00,49.6,21.0,29.83,WNW,295,9.0,12.0,32,0.00,,,0.00,weatherlink.com 1.10,2013-10-31 23:19:00,
2013-10-31 17:34:00,48.5,20.0,29.83,West,265,7.0,19.0,33,0.00,,,0.00,weatherlink.com 1.10,2013-10-31 23:34:00,
2013-10-31 17:50:00,47.6,20.0,29.83,WNW,288,3.0,17.0,34,0.00,,,0.00,weatherlink.com 1.10,2013-10-31 23:50:00,
2013-10-31 18:05:00,47.0,20.0,29.83,West,275,11.0,15.0,35,0.00,,,0.00,weatherlink.com 1.10,2013-11-01 00:05:00,
2013-10-31 18:20:00,46.8,21.0,29.83,West,270,3.0,21.0,36,0.00,,,0.00,weatherlink.com 1.10,2013-11-01 00:20:00,
2013-10-31 18:35:00,46.5,21.0,29.84,WNW,286,5.0,13.0,36,0.00,,,0.00,weatherlink.com 1.10,2013-11-01 00:35:00,
2013-10-31 18:50:00,46.2,21.0,29.85,West,268,6.0,18.0,37,0.00,,,0.00,weatherlink.com 1.10,2013-11-01 00:50:00,
2013-10-31 19:05:00,45.8,21.0,29.85,WNW,288,10.0,15.0,38,0.00,,,0.00,weatherlink.com 1.10,2013-11-01 01:05:00,
2013-10-31 19:20:00,46.3,21.0,29.84,West,260,3.0,18.0,37,0.00,,,0.00,weatherlink.com 1.10,2013-11-01 01:20:00,
2013-10-31 19:35:00,46.7,20.0,29.84,NW,308,5.0,24.0,35,0.00,,,0.00,weatherlink.com 1.10,2013-11-01 01:35:00,
2013-10-31 19:50:00,46.5,21.0,29.83,West,259,13.0,22.0,36,0.00,,,0.00,weatherlink.com 1.10,2013-11-01 01:50:00,
2013-10-31 20:05:00,46.3,21.0,29.84,WNW,296,0.0,18.0,36,0.00,,,0.00,weatherlink.com 1.10,2013-11-01 02:05:00,
2013-10-31 20:20:00,46.1,20.0,29.83,WNW,302,7.0,13.0,36,0.00,,,0.00,weatherlink.com 1.10,2013-11-01 02:20:00,
2013-10-31 20:35:00,46.7,20.0,29.83,NW,326,11.0,24.0,35,0.00,,,0.00,weatherlink.com 1.10,2013-11-01 02:35:00,
2013-10-31 20:50:00,46.9,20.0,29.84,WSW,240,6.0,16.0,35,0.00,,,0.00,weatherlink.com 1.10,2013-11-01 02:50:00,
2013-10-31 21:05:00,46.6,20.0,29.83,NW,313,11.0,20.0,35,0.00,,,0.00,weatherlink.com 1.10,2013-11-01 03:05:00,
2013-10-31 21:20:00,46.6,21.0,29.81,NNW,347,1.0,17.0,36,0.00,,,0.00,weatherlink.com 1.10,2013-11-01 03:20:00,
2013-10-31 21:35:00,47.9,21.0,29.82,NNW,348,2.0,13.0,34,0.00,,,0.00,weatherlink.com 1.10,2013-11-01 03:35:00,
2013-10-31 21:50:00,47.7,20.0,29.84,WSW,257,5.0,6.0,34,0.00,,,0.00,weatherlink.com 1.10,2013-11-01 03:50:00,
2013-10-31 22:05:00,47.8,21.0,29.84,East,95,0.0,5.0,34,0.00,,,0.00,weatherlink.com 1.10,2013-11-01 04:05:00,
2013-10-31 22:20:00,46.8,21.0,29.86,ENE,71,0.0,3.0,36,0.00,,,0.00,weatherlink.com 1.10,2013-11-01 04:20:00,
2013-10-31 22:35:00,47.0,21.0,29.86,WNW,299,0.0,6.0,36,0.00,,,0.00,weatherlink.com 1.10,2013-11-01 04:35:00,
2013-10-31 22:50:00,46.1,22.0,29.86,ENE,57,0.0,2.0,38,0.00,,,0.00,weatherlink.com 1.10,2013-11-01 04:50:00,
2013-10-31 23:05:00,45.2,21.0,29.86,SSW,203,0.0,3.0,38,0.00,,,0.00,weatherlink.com 1.10,2013-11-01 05:05:00,
2013-10-31 23:20:00,45.3,21.0,29.86,WSW,243,0.0,4.0,38,0.00,,,0.00,weatherlink.com 1.10,2013-11-01 05:20:00,
2013-10-31 23:35:00,48.4,21.0,29.87,NW,304,11.0,25.0,34,0.00,,,0.00,weatherlink.com 1.10,2013-11-01 05:35:00,
2013-10-31 23:50:00,48.0,22.0,29.88,West,281,4.0,15.0,36,0.00,,,0.00,weatherlink.com 1.10,2013-11-01 05:50:00,